Time;durP1;ratioP1;P1;durP2;ratioP2;P2;SDS_P1;SDS_P2;PMS_P1;PMS_P2;Temp;Humidity;BMP_temperature;BMP_pressure;BME280_temperature;BME280_humidity;BME280_pressure;Samples;Min_cycle;Max_cycle;Signal;HPM_P1;HPM_P2
2022/03/29 00:00:26;;;;;;;;;;;;;;;21.14;43.58;100890.56;4975455;28;4210;-60
2022/03/29 00:02:53;;;;;;;;;;;;;;;21.14;43.53;100884.81;4977039;28;4403;-64
2022/03/29 00:05:19;;;;;;;;;;;;;;;21.12;43.47;100890.50;4974887;28;4152;-60
2022/03/29 00:07:45;;;;;;;;;;;;;;;21.13;43.55;100886.22;4974502;28;4243;-61
2022/03/29 00:10:12;;;;;;;;;;;;;;;21.14;43.49;100896.31;4975039;28;4213;-61
2022/03/29 00:12:39;;;;;;;;;;;;;;;21.12;43.41;100882.59;4977512;28;4214;-61
2022/03/29 00:15:05;;;;;;;;;;;;;;;21.11;43.60;100886.13;4977076;28;4179;-60
2022/03/29 00:17:32;;;;;;;;;;;;;;;21.13;43.40;100883.34;4977156;28;5316;-61
2022/03/29 00:19:58;;;;;;;;;;;;;;;21.11;43.46;100881.09;4976961;28;4165;-61
2022/03/29 00:22:25;;;;;;;;;;;;;;;21.10;43.50;100878.88;4974729;28;4671;-61
2022/03/29 00:24:51;;;;;;;;;;;;;;;21.09;43.34;100871.63;4976815;28;5537;-60
2022/03/29 00:27:18;;;;;;;;;;;;;;;21.07;43.48;100869.44;4976863;28;4140;-61
2022/03/29 00:29:44;;;;;;;;;;;;;;;21.08;43.37;100870.16;4976195;28;4113;-60
2022/03/29 00:32:10;;;;;;;;;;;;;;;21.07;43.39;100869.44;4973964;28;5855;-60
2022/03/29 00:34:37;;;;;;;;;;;;;;;21.06;43.46;100867.19;4977198;28;4209;-61
2022/03/29 00:37:04;;;;;;;;;;;;;;;21.06;43.33;100878.72;4978465;28;4187;-61
2022/03/29 00:39:30;;;;;;;;;;;;;;;21.06;43.34;100872.94;4976130;28;4587;-60
2022/03/29 00:41:57;;;;;;;;;;;;;;;21.05;43.23;100882.97;4976891;28;4516;-60
2022/03/29 00:44:24;;;;;;;;;;;;;;;21.00;43.34;100875.56;4975763;28;4127;-60
2022/03/29 00:46:50;;;;;;;;;;;;;;;21.04;43.28;100876.47;4964163;28;4089;-60
2022/03/29 00:49:17;;;;;;;;;;;;;;;21.03;43.41;100862.75;4977839;28;4275;-60
2022/03/29 00:51:43;;;;;;;;;;;;;;;21.04;43.35;100875.75;4975969;28;4654;-61
2022/03/29 00:54:09;;;;;;;;;;;;;;;21.01;43.39;100868.41;4975549;28;4366;-60
2022/03/29 00:56:36;;;;;;;;;;;;;;;21.02;43.36;100864.13;4975092;28;4101;-61
2022/03/29 00:59:02;;;;;;;;;;;;;;;21.01;43.17;100854.75;4977285;28;4409;-61
2022/03/29 01:01:29;;;;;;;;;;;;;;;21.00;43.30;100858.28;4969549;28;4350;-61
2022/03/29 01:03:57;;;;;;;;;;;;;;;21.00;43.35;100852.53;4975406;28;6797;-61
2022/03/29 01:06:24;;;;;;;;;;;;;;;21.00;43.14;100849.66;4977760;28;4143;-61
2022/03/29 01:08:50;;;;;;;;;;;;;;;20.99;43.22;100846.03;4973861;28;4238;-61
2022/03/29 01:11:16;;;;;;;;;;;;;;;20.99;43.16;100851.78;4973775;28;4313;-61
2022/03/29 01:13:43;;;;;;;;;;;;;;;20.99;43.24;100848.16;4975729;28;4252;-60
2022/03/29 01:18:54;;;;;;;;;;;;;;;20.95;43.25;100842.22;4974152;28;4594;-62
2022/03/29 01:21:20;;;;;;;;;;;;;;;20.96;43.08;100846.59;4972870;28;5283;-60
2022/03/29 01:23:47;;;;;;;;;;;;;;;20.95;43.27;100845.13;4971780;28;4802;-60
2022/03/29 01:26:13;;;;;;;;;;;;;;;20.95;43.25;100845.84;4975167;28;4134;-60
2022/03/29 01:28:40;;;;;;;;;;;;;;;20.96;43.03;100844.47;4968956;28;4075;-61
2022/03/29 01:31:07;;;;;;;;;;;;;;;20.95;43.04;100839.34;4969942;28;4222;-60
2022/03/29 01:33:34;;;;;;;;;;;;;;;20.95;43.12;100839.34;4976634;28;4148;-61
2022/03/29 01:36:00;;;;;;;;;;;;;;;20.95;43.07;100839.34;4978866;28;4102;-60
2022/03/29 01:38:27;;;;;;;;;;;;;;;20.92;43.17;100833.50;4979828;28;4063;-61
2022/03/29 01:40:59;;;;;;;;;;;;;;;20.92;43.20;100824.88;4978796;28;4298;-63
2022/03/29 01:43:25;;;;;;;;;;;;;;;20.92;43.05;100824.88;4979386;28;4258;-60
2022/03/29 01:46:12;;;;;;;;;;;;;;;20.90;43.03;100821.16;4979313;28;4040;-60
2022/03/29 01:48:57;;;;;;;;;;;;;;;20.92;43.11;100816.22;4976322;28;4181;-61
2022/03/29 01:51:23;;;;;;;;;;;;;;;20.91;43.05;100814.75;4977027;28;5406;-61
2022/03/29 01:53:56;;;;;;;;;;;;;;;20.91;43.06;100805.38;4978710;28;4162;-60
2022/03/29 01:56:26;;;;;;;;;;;;;;;20.91;43.11;100811.13;4977615;28;4201;-60
2022/03/29 01:58:52;;;;;;;;;;;;;;;20.90;43.17;100813.25;4979642;28;4282;-60
2022/03/29 02:01:18;;;;;;;;;;;;;;;20.89;43.04;100803.16;4975455;28;4197;-60
2022/03/29 02:03:45;;;;;;;;;;;;;;;20.89;43.07;100800.28;4977917;28;5706;-60
2022/03/29 02:06:11;;;;;;;;;;;;;;;20.89;43.14;100802.41;4977446;28;4236;-60
2022/03/29 02:08:38;;;;;;;;;;;;;;;20.89;42.98;100803.16;4979477;28;5295;-61
2022/03/29 02:11:04;;;;;;;;;;;;;;;20.88;42.99;100795.91;4976178;28;4402;-61
2022/03/29 02:13:30;;;;;;;;;;;;;;;20.89;43.00;100785.13;4978039;28;4408;-60
2022/03/29 02:15:57;;;;;;;;;;;;;;;20.89;43.04;100800.28;4979078;28;4195;-60
2022/03/29 02:18:23;;;;;;;;;;;;;;;20.88;43.14;100795.16;4977220;28;3988;-60
2022/03/29 02:20:49;;;;;;;;;;;;;;;20.87;43.08;100800.19;4979765;28;4223;-60
2022/03/29 02:23:16;;;;;;;;;;;;;;;20.86;42.99;100795.81;4978952;28;5223;-60
2022/03/29 02:25:42;;;;;;;;;;;;;;;20.86;42.91;100792.94;4979193;28;5334;-60
2022/03/29 02:28:09;;;;;;;;;;;;;;;20.85;42.95;100797.22;4979308;28;5276;-60
2022/03/29 02:30:36;;;;;;;;;;;;;;;20.86;43.06;100797.97;4979772;28;4611;-60
2022/03/29 02:33:02;;;;;;;;;;;;;;;20.85;42.97;100797.22;4973330;28;4378;-60
2022/03/29 02:35:29;;;;;;;;;;;;;;;20.83;43.01;100800.00;4977700;28;5341;-61
2022/03/29 02:37:55;;;;;;;;;;;;;;;20.83;42.92;100808.66;4979282;28;4140;-61
2022/03/29 02:40:21;;;;;;;;;;;;;;;20.82;43.05;100804.28;4978236;28;5324;-61
2022/03/29 02:42:51;;;;;;;;;;;;;;;20.81;42.89;100805.66;4980289;28;4595;-61
2022/03/29 02:45:24;;;;;;;;;;;;;;;20.82;42.90;100804.28;4976136;28;5468;-60
2022/03/29 02:47:51;;;;;;;;;;;;;;;20.87;42.92;100805.22;4981138;28;4131;-61
2022/03/29 02:50:17;;;;;;;;;;;;;;;20.90;42.87;100816.13;4979560;28;4057;-60
2022/03/29 02:52:44;;;;;;;;;;;;;;;20.93;42.86;100796.81;4977821;28;4248;-60
2022/03/29 02:55:11;;;;;;;;;;;;;;;20.96;42.83;100800.53;4975816;28;5234;-61
2022/03/29 02:57:37;;;;;;;;;;;;;;;20.97;43.00;100796.25;4977169;28;4368;-60
2022/03/29 03:00:05;;;;;;;;;;;;;;;20.98;43.07;100794.84;4980309;28;4441;-60
2022/03/29 03:02:34;;;;;;;;;;;;;;;20.99;43.14;100805.00;4977179;28;4280;-60
2022/03/29 03:05:00;;;;;;;;;;;;;;;20.99;43.05;100796.34;4977219;28;4247;-61
2022/03/29 03:07:27;;;;;;;;;;;;;;;21.00;43.15;100804.31;4977960;28;4023;-60
2022/03/29 03:09:53;;;;;;;;;;;;;;;21.00;43.00;100801.44;4975325;28;4171;-61
2022/03/29 03:12:20;;;;;;;;;;;;;;;21.03;43.15;100797.28;4977124;28;4113;-60
2022/03/29 03:14:46;;;;;;;;;;;;;;;21.03;43.14;100787.91;4976657;28;4187;-60
2022/03/29 03:17:13;;;;;;;;;;;;;;;21.05;43.30;100790.84;4977004;28;5600;-61
2022/03/29 03:19:39;;;;;;;;;;;;;;;21.04;43.38;100783.63;4978907;28;4646;-60
2022/03/29 03:22:05;;;;;;;;;;;;;;;21.06;43.25;100780.81;4979320;28;4416;-60
2022/03/29 03:24:32;;;;;;;;;;;;;;;21.05;43.33;100785.06;4977311;28;4227;-61
2022/03/29 03:26:58;;;;;;;;;;;;;;;21.08;43.35;100783.78;4976561;28;4285;-61
2022/03/29 03:29:25;;;;;;;;;;;;;;;21.07;43.31;100782.28;4975835;28;4151;-60
2022/03/29 03:31:52;;;;;;;;;;;;;;;21.09;43.31;100779.50;4978819;28;6715;-61
2022/03/29 03:34:19;;;;;;;;;;;;;;;21.08;43.38;100778.03;4979524;28;5417;-60
2022/03/29 03:36:45;;;;;;;;;;;;;;;21.08;43.56;100778.03;4977806;28;4194;-60
2022/03/29 03:39:12;;;;;;;;;;;;;;;21.10;43.61;100775.25;4977329;28;5282;-60
2022/03/29 03:41:39;;;;;;;;;;;;;;;21.09;43.56;100773.75;4977783;28;5272;-60
2022/03/29 03:44:05;;;;;;;;;;;;;;;21.09;43.62;100773.75;4976431;28;4179;-60
2022/03/29 03:46:32;;;;;;;;;;;;;;;21.10;43.70;100775.25;4975938;28;4232;-60
2022/03/29 03:49:00;;;;;;;;;;;;;;;21.08;43.67;100773.00;4975512;28;4303;-61
2022/03/29 03:51:26;;;;;;;;;;;;;;;21.07;43.57;100770.78;4978304;28;4213;-61
2022/03/29 03:53:53;;;;;;;;;;;;;;;21.10;43.56;100769.47;4973836;28;4289;-63
2022/03/29 03:56:19;;;;;;;;;;;;;;;21.09;43.62;100768.72;4977330;28;5609;-60
2022/03/29 03:58:46;;;;;;;;;;;;;;;21.09;43.71;100765.09;4978241;28;4264;-60
2022/03/29 04:01:12;;;;;;;;;;;;;;;21.09;43.77;100767.97;4978164;28;4051;-61
2022/03/29 04:03:39;;;;;;;;;;;;;;;21.09;43.73;100767.97;4976605;28;4252;-60
2022/03/29 04:06:05;;;;;;;;;;;;;;;21.11;43.83;100770.94;4975302;28;5318;-61
2022/03/29 04:08:31;;;;;;;;;;;;;;;21.11;43.72;100776.72;4974152;28;4221;-60
2022/03/29 04:10:58;;;;;;;;;;;;;;;21.11;43.85;100760.16;4976092;28;4176;-61
2022/03/29 04:13:25;;;;;;;;;;;;;;;21.13;43.79;100766.00;4977540;28;4171;-61
2022/03/29 04:15:51;;;;;;;;;;;;;;;21.13;43.75;100762.41;4976799;28;4262;-61
2022/03/29 04:18:18;;;;;;;;;;;;;;;21.12;43.74;100767.41;4976674;28;5469;-61
2022/03/29 04:20:44;;;;;;;;;;;;;;;21.13;43.81;100771.78;4975314;28;4678;-61
2022/03/29 04:23:10;;;;;;;;;;;;;;;21.14;43.86;100763.88;4974438;28;4002;-61
2022/03/29 04:25:38;;;;;;;;;;;;;;;21.16;43.89;100761.06;4975117;28;4316;-61
2022/03/29 04:28:04;;;;;;;;;;;;;;;21.17;43.80;100761.84;4977632;28;4069;-61
2022/03/29 04:30:30;;;;;;;;;;;;;;;21.16;43.77;100760.34;4974718;28;4110;-61
2022/03/29 04:32:57;;;;;;;;;;;;;;;21.17;43.81;100753.94;4977739;28;5261;-61
2022/03/29 04:35:23;;;;;;;;;;;;;;;21.14;43.95;100755.22;4973555;28;4157;-60
2022/03/29 04:37:49;;;;;;;;;;;;;;;21.17;43.93;100751.06;4969313;28;4160;-61
2022/03/29 04:40:16;;;;;;;;;;;;;;;21.13;43.94;100745.13;4968655;28;4177;-61
2022/03/29 04:42:45;;;;;;;;;;;;;;;21.17;44.02;100739.53;4966073;28;4199;-60
2022/03/29 04:45:12;;;;;;;;;;;;;;;21.10;44.50;100738.53;4968127;28;4207;-60
2022/03/29 04:47:40;;;;;;;;;;;;;;;21.07;44.26;100736.22;4973305;28;4076;-60
2022/03/29 04:50:07;;;;;;;;;;;;;;;20.97;43.19;100748.06;4968238;28;4105;-60
2022/03/29 04:52:33;;;;;;;;;;;;;;;20.93;43.32;100748.63;4958541;28;4088;-67
2022/03/29 04:55:00;;;;;;;;;;;;;;;20.98;43.51;100740.16;4968624;28;4371;-63
2022/03/29 04:57:26;;;;;;;;;;;;;;;20.81;42.46;100739.47;4970835;28;4177;-62
2022/03/29 04:59:53;;;;;;;;;;;;;;;20.90;43.10;100738.44;4971018;28;4080;-61
2022/03/29 05:02:19;;;;;;;;;;;;;;;20.95;42.81;100741.47;4953340;28;4235;-61
2022/03/29 05:04:46;;;;;;;;;;;;;;;20.97;43.13;100733.66;4974963;28;4189;-60
2022/03/29 05:07:12;;;;;;;;;;;;;;;20.98;43.44;100740.16;4973798;28;4667;-61
2022/03/29 05:09:39;;;;;;;;;;;;;;;21.00;43.44;100743.88;4972269;28;5238;-61
2022/03/29 05:12:05;;;;;;;;;;;;;;;21.03;43.67;100730.31;4975245;28;4213;-61
2022/03/29 05:14:32;;;;;;;;;;;;;;;21.07;43.74;100727.59;4973268;28;4239;-61
2022/03/29 05:16:58;;;;;;;;;;;;;;;21.07;43.46;100725.47;4974998;28;5469;-61
2022/03/29 05:19:24;;;;;;;;;;;;;;;21.08;43.61;100732.69;4968952;28;4220;-61
2022/03/29 05:21:51;;;;;;;;;;;;;;;21.10;43.44;100734.94;4972529;28;4194;-61
2022/03/29 05:24:17;;;;;;;;;;;;;;;21.09;43.71;100733.44;4968946;28;5285;-61
2022/03/29 05:26:44;;;;;;;;;;;;;;;21.10;43.71;100734.94;4972083;28;4159;-60
2022/03/29 05:29:11;;;;;;;;;;;;;;;21.11;43.72;100736.41;4978116;28;4614;-61
2022/03/29 05:31:38;;;;;;;;;;;;;;;21.12;43.82;100735.03;4977768;28;4251;-60
2022/03/29 05:34:04;;;;;;;;;;;;;;;21.15;43.83;100738.72;4972370;28;5490;-60
2022/03/29 05:36:31;;;;;;;;;;;;;;;21.14;43.80;100735.06;4979893;28;4737;-61
2022/03/29 05:38:57;;;;;;;;;;;;;;;21.14;44.03;100746.59;4973422;28;5155;-61
2022/03/29 05:41:29;;;;;;;;;;;;;;;21.15;44.05;100736.56;4971169;28;4498;-60
2022/03/29 05:43:56;;;;;;;;;;;;;;;21.17;44.13;100733.78;4972289;28;4234;-60
2022/03/29 05:49:08;;;;;;;;;;;;;;;21.18;44.21;100728.75;4980001;28;4387;-60
2022/03/29 05:51:34;;;;;;;;;;;;;;;21.17;44.29;100733.78;4975780;28;4192;-60
2022/03/29 05:54:01;;;;;;;;;;;;;;;21.19;44.54;100730.22;4971514;28;5595;-60
2022/03/29 05:56:27;;;;;;;;;;;;;;;21.16;44.51;100731.56;4976583;28;4230;-63
2022/03/29 05:58:54;;;;;;;;;;;;;;;21.17;44.32;100727.28;4966595;28;5450;-63
2022/03/29 06:01:20;;;;;;;;;;;;;;;21.18;44.41;100734.50;4975069;28;4052;-60
2022/03/29 06:03:47;;;;;;;;;;;;;;;21.18;44.58;100735.25;4975208;28;4089;-61
2022/03/29 06:06:13;;;;;;;;;;;;;;;21.20;44.63;100738.22;4980824;28;4022;-61
2022/03/29 06:08:40;;;;;;;;;;;;;;;21.18;44.98;100728.75;4976497;28;4988;-61
2022/03/29 06:11:07;;;;;;;;;;;;;;;21.19;45.01;100728.09;4971620;28;4127;-61
2022/03/29 06:13:33;;;;;;;;;;;;;;;21.22;45.04;100734.69;4978010;28;5393;-61
2022/03/29 06:16:00;;;;;;;;;;;;;;;21.20;44.89;100735.34;4978421;28;5220;-61
2022/03/29 06:18:26;;;;;;;;;;;;;;;21.16;45.28;100732.28;4977620;28;4259;-61
2022/03/29 06:20:53;;;;;;;;;;;;;;;21.17;45.39;100724.41;4975677;28;4499;-61
2022/03/29 06:23:19;;;;;;;;;;;;;;;21.18;45.29;100737.38;4978418;28;4249;-61
2022/03/29 06:25:46;;;;;;;;;;;;;;;21.17;45.70;100745.28;4977685;28;6311;-59
2022/03/29 06:28:14;;;;;;;;;;;;;;;21.21;45.34;100733.94;4975291;28;4204;-61
2022/03/29 06:30:40;;;;;;;;;;;;;;;21.25;45.15;100734.09;4979452;28;4396;-61
2022/03/29 06:33:06;;;;;;;;;;;;;;;21.22;45.12;100729.66;4978621;28;4212;-64
2022/03/29 06:35:35;;;;;;;;;;;;;;;21.24;45.42;100734.78;4978437;28;4240;-61
2022/03/29 06:38:01;;;;;;;;;;;;;;;21.21;45.43;100728.19;4974023;28;4258;-61
2022/03/29 06:40:27;;;;;;;;;;;;;;;21.34;45.33;100738.78;4971898;28;4373;-62
2022/03/29 06:42:55;;;;;;;;;;;;;;;21.38;45.86;100737.47;4981441;28;4168;-63
2022/03/29 06:45:21;;;;;;;;;;;;;;;21.40;46.11;100737.56;4980290;28;4294;-62
2022/03/29 06:47:47;;;;;;;;;;;;;;;21.40;46.07;100738.34;4979474;28;4210;-62
2022/03/29 06:50:14;;;;;;;;;;;;;;;21.44;46.16;100737.75;4974779;28;5630;-62
2022/03/29 06:52:41;;;;;;;;;;;;;;;21.47;46.21;100739.31;4977534;28;4274;-62
2022/03/29 06:55:08;;;;;;;;;;;;;;;21.45;45.96;100734.22;4972217;28;4325;-63
2022/03/29 06:57:34;;;;;;;;;;;;;;;21.44;45.98;100734.84;4973569;28;4196;-62
2022/03/29 07:00:01;;;;;;;;;;;;;;;21.46;45.95;100735.69;4978349;28;4005;-62
2022/03/29 07:02:28;;;;;;;;;;;;;;;21.46;45.93;100729.19;4974448;28;4110;-62
2022/03/29 07:04:55;;;;;;;;;;;;;;;21.49;46.18;100730.75;4976443;28;4242;-62
2022/03/29 07:07:21;;;;;;;;;;;;;;;21.51;45.99;100733.72;4975578;28;4444;-62
2022/03/29 07:12:54;;;;;;;;;;;;;;;21.52;45.68;100738.06;4972013;28;4188;-61
2022/03/29 07:15:38;;;;;;;;;;;;;;;21.47;45.72;100730.69;4952099;28;5267;-60
2022/03/29 07:18:05;;;;;;;;;;;;;;;21.50;45.66;100732.22;4976158;28;6399;-63
2022/03/29 07:20:32;;;;;;;;;;;;;;;21.47;45.65;100730.69;4974724;28;5519;-60
2022/03/29 07:22:58;;;;;;;;;;;;;;;21.49;45.66;100722.13;4976475;28;4208;-63
2022/03/29 07:25:26;;;;;;;;;;;;;;;21.47;45.76;100724.91;4974304;28;4147;-60
2022/03/29 07:27:56;;;;;;;;;;;;;;;21.47;45.45;100719.88;4976722;28;4789;-67
2022/03/29 07:30:22;;;;;;;;;;;;;;;21.47;45.34;100722.03;4976020;28;4601;-61
2022/03/29 07:32:49;;;;;;;;;;;;;;;21.48;45.47;100720.63;4976723;28;4088;-61
2022/03/29 07:35:17;;;;;;;;;;;;;;;21.47;45.03;100730.69;4977701;28;4136;-61
2022/03/29 07:37:44;;;;;;;;;;;;;;;21.49;45.29;100733.66;4967861;28;6641;-60
2022/03/29 07:40:11;;;;;;;;;;;;;;;21.46;45.22;100723.41;4972173;28;5276;-60
2022/03/29 07:42:37;;;;;;;;;;;;;;;21.60;45.78;100726.13;4977337;28;4292;-62
2022/03/29 07:45:04;;;;;;;;;;;;;;;21.79;45.35;100730.47;4972882;28;4153;-61
2022/03/29 07:47:31;;;;;;;;;;;;;;;21.79;45.34;100719.69;4973809;28;5945;-61
2022/03/29 07:50:17;;;;;;;;;;;;;;;21.95;44.69;100714.53;4972180;28;4650;-64
2022/03/29 07:52:59;;;;;;;;;;;;;;;22.04;44.63;100724.22;4975941;28;4886;-61
2022/03/29 07:55:26;;;;;;;;;;;;;;;22.04;44.69;100721.34;4977578;28;5000;-61
2022/03/29 07:58:06;;;;;;;;;;;;;;;22.07;44.47;100714.22;4977738;28;4131;-64
2022/03/29 08:00:32;;;;;;;;;;;;;;;22.19;44.44;100713.94;4980095;28;4179;-61
2022/03/29 08:03:03;;;;;;;;;;;;;;;22.21;44.11;100713.28;4976507;28;4167;-62
2022/03/29 08:05:30;;;;;;;;;;;;;;;22.26;44.09;100712.03;4976472;28;4236;-63
2022/03/29 08:07:57;;;;;;;;;;;;;;;22.34;43.93;100706.56;4973947;28;4192;-63
2022/03/29 08:10:25;;;;;;;;;;;;;;;22.34;43.98;100713.06;4979394;28;4205;-64
2022/03/29 08:12:52;;;;;;;;;;;;;;;22.24;43.78;100709.06;4977966;28;4024;-60
2022/03/29 08:15:18;;;;;;;;;;;;;;;22.15;44.17;100693.59;4979269;28;4737;-62
2022/03/29 08:17:48;;;;;;;;;;;;;;;22.10;44.33;100692.69;4970068;28;4397;-64
2022/03/29 08:20:15;;;;;;;;;;;;;;;22.13;44.26;100688.50;4972704;28;5282;-61
2022/03/29 08:22:47;;;;;;;;;;;;;;;22.14;44.45;100701.50;4971774;28;4610;-62
2022/03/29 08:25:14;;;;;;;;;;;;;;;22.15;44.25;100685.69;4972118;28;4380;-64
2022/03/29 08:27:40;;;;;;;;;;;;;;;22.15;44.31;100691.47;4977149;28;4944;-61
2022/03/29 08:30:07;;;;;;;;;;;;;;;22.20;43.99;100686.59;4976362;28;5131;-61
2022/03/29 08:32:35;;;;;;;;;;;;;;;22.23;43.99;100678.78;4976687;28;4694;-63
2022/03/29 08:35:02;;;;;;;;;;;;;;;22.20;44.37;100686.59;4976827;28;4410;-62
2022/03/29 08:37:29;;;;;;;;;;;;;;;22.23;44.50;100684.53;4976146;28;4117;-63
2022/03/29 08:39:55;;;;;;;;;;;;;;;22.24;44.29;100674.47;4978993;28;4523;-63
2022/03/29 08:42:23;;;;;;;;;;;;;;;22.21;44.33;100667.88;4974961;28;4725;-61
2022/03/29 08:44:49;;;;;;;;;;;;;;;22.21;44.45;100667.13;4978263;28;4117;-64
2022/03/29 08:47:15;;;;;;;;;;;;;;;22.21;44.65;100655.59;4980397;28;4278;-63
2022/03/29 08:49:45;;;;;;;;;;;;;;;22.18;44.72;100661.28;4980136;28;4285;-65
2022/03/29 08:52:11;;;;;;;;;;;;;;;22.21;44.80;100664.25;4977653;28;4243;-62
2022/03/29 08:54:38;;;;;;;;;;;;;;;22.19;44.50;100664.91;4975852;28;6100;-64
2022/03/29 08:57:04;;;;;;;;;;;;;;;22.22;44.73;100663.63;4976287;28;4739;-66
2022/03/29 08:59:31;;;;;;;;;;;;;;;22.24;44.57;100657.16;4976670;28;4572;-65
2022/03/29 09:01:57;;;;;;;;;;;;;;;22.23;44.65;100655.69;4974636;28;5296;-64
2022/03/29 09:04:24;;;;;;;;;;;;;;;22.22;44.66;100654.19;4976357;28;5518;-65
2022/03/29 09:06:50;;;;;;;;;;;;;;;22.25;44.52;100638.47;4974829;28;4505;-63
2022/03/29 09:09:26;;;;;;;;;;;;;;;22.26;44.49;100648.59;4974512;28;4633;-64
2022/03/29 09:11:54;;;;;;;;;;;;;;;22.29;44.37;100647.28;4972494;28;4738;-67
2022/03/29 09:14:21;;;;;;;;;;;;;;;22.28;44.63;100645.78;4976159;28;4061;-63
2022/03/29 09:16:48;;;;;;;;;;;;;;;22.32;44.40;100640.16;4973460;28;4090;-65
2022/03/29 09:19:15;;;;;;;;;;;;;;;22.28;44.43;100651.53;4973487;28;4592;-61
2022/03/29 09:21:42;;;;;;;;;;;;;;;22.26;44.72;100637.03;4973617;28;4196;-70
2022/03/29 09:24:10;;;;;;;;;;;;;;;22.25;44.39;100641.34;4973624;28;6191;-65
2022/03/29 09:26:39;;;;;;;;;;;;;;;22.25;44.30;100641.34;4975463;28;4590;-63
2022/03/29 09:29:17;;;;;;;;;;;;;;;22.23;44.96;100644.16;4972512;28;5358;-65
2022/03/29 09:31:44;;;;;;;;;;;;;;;22.18;45.00;100641.09;4971583;28;4181;-64
2022/03/29 09:34:15;;;;;;;;;;;;;;;22.23;44.89;100632.63;4973842;28;5275;-61
2022/03/29 09:36:48;;;;;;;;;;;;;;;22.29;44.59;100629.97;4974281;28;5194;-62
2022/03/29 09:39:34;;;;;;;;;;;;;;;22.29;44.52;100633.56;4972603;28;5248;-61
2022/03/29 09:42:01;;;;;;;;;;;;;;;22.26;44.48;100631.28;4969179;28;4551;-62
2022/03/29 09:44:40;;;;;;;;;;;;;;;22.25;44.56;100635.59;4970671;28;4500;-62
2022/03/29 09:47:09;;;;;;;;;;;;;;;22.21;44.94;100629.63;4974199;28;5460;-62
2022/03/29 09:49:52;;;;;;;;;;;;;;;22.23;44.45;100633.34;4970642;28;4246;-62
2022/03/29 09:52:20;;;;;;;;;;;;;;;22.21;44.69;100618.84;4975862;28;4218;-62
2022/03/29 09:55:05;;;;;;;;;;;;;;;22.17;44.84;100630.97;4972943;28;5531;-62
2022/03/29 09:57:38;;;;;;;;;;;;;;;22.18;44.62;100615.16;4977866;28;4159;-61
2022/03/29 10:00:07;;;;;;;;;;;;;;;22.23;44.76;100609.56;4973506;28;4424;-65
2022/03/29 10:02:40;;;;;;;;;;;;;;;22.21;44.56;100615.22;4977058;28;4573;-62
2022/03/29 10:05:09;;;;;;;;;;;;;;;22.16;44.78;100615.06;4971945;28;4587;-65
2022/03/29 10:07:47;;;;;;;;;;;;;;;22.10;45.04;100603.31;4971603;28;4021;-63
2022/03/29 10:10:14;;;;;;;;;;;;;;;22.10;44.98;100609.06;4973937;28;5252;-67
2022/03/29 10:12:40;;;;;;;;;;;;;;;22.16;44.72;100594.88;4974801;28;4319;-63
2022/03/29 10:15:26;;;;;;;;;;;;;;;22.20;44.81;100596.44;4975184;28;4194;-65
2022/03/29 10:17:54;;;;;;;;;;;;;;;22.21;44.99;100601.56;4973688;28;4753;-63
2022/03/29 10:20:21;;;;;;;;;;;;;;;22.20;44.65;100599.34;4973316;28;4783;-63
2022/03/29 10:22:47;;;;;;;;;;;;;;;22.18;44.77;100597.84;4972369;28;4296;-62
2022/03/29 10:25:13;;;;;;;;;;;;;;;22.17;44.73;100584.84;4975038;28;4618;-63
2022/03/29 10:27:40;;;;;;;;;;;;;;;22.18;44.96;100583.41;4975746;28;5818;-64
2022/03/29 10:30:06;;;;;;;;;;;;;;;22.14;45.14;100583.28;4971609;28;5191;-65
2022/03/29 10:32:33;;;;;;;;;;;;;;;22.21;44.76;100577.72;4976134;28;4624;-62
2022/03/29 10:35:03;;;;;;;;;;;;;;;22.23;44.85;100574.94;4976767;28;4394;-64
2022/03/29 10:37:32;;;;;;;;;;;;;;;22.23;45.01;100574.94;4970794;28;4314;-62
2022/03/29 10:40:04;;;;;;;;;;;;;;;22.37;44.54;100561.00;4974683;28;4614;-67
2022/03/29 10:42:44;;;;;;;;;;;;;;;22.44;44.32;100562.66;4978153;28;4440;-64
2022/03/29 10:45:22;;;;;;;;;;;;;;;22.47;44.19;100564.22;4977851;28;4276;-65
2022/03/29 10:48:00;;;;;;;;;;;;;;;22.47;44.31;100567.13;4973764;28;4114;-66
2022/03/29 10:50:53;;;;;;;;;;;;;;;22.44;44.45;100565.56;4978427;28;4527;-66
2022/03/29 10:53:23;;;;;;;;;;;;;;;22.45;44.51;100558.38;4976214;28;5191;-67
2022/03/29 10:56:14;;;;;;;;;;;;;;;22.41;44.48;100555.34;4975898;28;4252;-67
2022/03/29 10:59:00;;;;;;;;;;;;;;;22.42;44.26;100556.09;4971708;28;4180;-67
2022/03/29 11:01:26;;;;;;;;;;;;;;;22.41;44.45;100555.34;4973538;28;4251;-66
2022/03/29 11:04:03;;;;;;;;;;;;;;;22.43;44.13;100543.88;4973256;28;4103;-65
2022/03/29 11:06:29;;;;;;;;;;;;;;;22.44;44.11;100545.34;4974055;28;4430;-64
2022/03/29 11:09:05;;;;;;;;;;;;;;;22.44;43.78;100542.47;4972725;28;4551;-67
2022/03/29 11:11:43;;;;;;;;;;;;;;;22.47;43.74;100551.94;4973532;28;7208;-66
2022/03/29 11:14:27;;;;;;;;;;;;;;;22.45;43.78;100538.19;4975198;28;5574;-68
2022/03/29 11:16:54;;;;;;;;;;;;;;;22.45;43.93;100532.41;4974346;28;4673;-66
2022/03/29 11:19:37;;;;;;;;;;;;;;;22.46;44.20;100533.16;4971200;28;4685;-64
2022/03/29 11:22:22;;;;;;;;;;;;;;;22.48;44.48;100536.84;4971236;28;4462;-65
2022/03/29 11:24:49;;;;;;;;;;;;;;;22.46;44.05;100527.38;4976360;28;4664;-65
2022/03/29 11:27:20;;;;;;;;;;;;;;;22.43;44.10;100522.97;4970393;28;5057;-65
2022/03/29 11:29:46;;;;;;;;;;;;;;;22.45;44.01;100514.34;4972380;28;4108;-66
2022/03/29 11:32:13;;;;;;;;;;;;;;;22.26;42.72;100518.78;4973931;28;4731;-61
2022/03/29 11:34:40;;;;;;;;;;;;;;;22.02;42.08;100499.25;4974484;28;4260;-60
2022/03/29 11:37:07;;;;;;;;;;;;;;;21.93;40.07;100515.53;4972261;28;4436;-60
2022/03/29 11:39:33;;;;;;;;;;;;;;;21.95;39.58;100515.59;4966005;28;4552;-60
2022/03/29 11:42:00;;;;;;;;;;;;;;;21.93;41.24;100504.00;4974800;28;4562;-60
2022/03/29 11:44:26;;;;;;;;;;;;;;;22.02;41.59;100510.03;4973430;28;4598;-61
2022/03/29 11:46:54;;;;;;;;;;;;;;;22.06;41.94;100502.28;4974712;28;4397;-61
2022/03/29 11:49:21;;;;;;;;;;;;;;;22.11;41.48;100495.22;4972752;28;4194;-62
2022/03/29 11:52:01;;;;;;;;;;;;;;;22.11;42.19;100503.88;4976731;28;4450;-61
2022/03/29 11:54:27;;;;;;;;;;;;;;;22.14;42.56;100499.66;4972712;28;4149;-60
2022/03/29 11:56:54;;;;;;;;;;;;;;;22.18;43.03;100484.63;4973198;28;4633;-62
2022/03/29 11:59:20;;;;;;;;;;;;;;;22.18;42.49;100499.78;4971656;28;4683;-60
2022/03/29 12:01:46;;;;;;;;;;;;;;;22.18;42.73;100488.25;4975308;28;4234;-60
2022/03/29 12:04:13;;;;;;;;;;;;;;;22.17;43.26;100481.03;4970696;28;4574;-60
2022/03/29 12:06:52;;;;;;;;;;;;;;;22.20;43.40;100466.66;4972734;28;4466;-60
2022/03/29 12:09:22;;;;;;;;;;;;;;;22.18;42.92;100484.63;4972949;28;4181;-60
2022/03/29 12:11:48;;;;;;;;;;;;;;;22.20;43.34;100473.16;4972668;28;4563;-59
2022/03/29 12:14:15;;;;;;;;;;;;;;;22.21;43.61;100473.91;4974740;28;5247;-58
2022/03/29 12:16:42;;;;;;;;;;;;;;;22.17;42.84;100475.25;4974778;28;4378;-61
2022/03/29 12:19:16;;;;;;;;;;;;;;;22.12;42.31;100473.63;4972499;28;4888;-62
2022/03/29 12:21:48;;;;;;;;;;;;;;;22.11;41.49;100472.16;4977637;28;4616;-62
2022/03/29 12:24:21;;;;;;;;;;;;;;;21.98;41.63;100461.63;4975330;28;4619;-62
2022/03/29 12:26:48;;;;;;;;;;;;;;;21.78;39.30;100452.28;4971927;28;4428;-62
2022/03/29 12:29:20;;;;;;;;;;;;;;;21.81;37.77;100459.63;4972123;28;4445;-62
2022/03/29 12:31:47;;;;;;;;;;;;;;;21.75;35.85;100446.47;4975023;28;4255;-63
2022/03/29 12:34:14;;;;;;;;;;;;;;;21.68;34.00;100450.53;4967955;28;5306;-65
2022/03/29 12:36:41;;;;;;;;;;;;;;;21.70;33.63;100436.19;4962639;28;3998;-61
2022/03/29 12:39:07;;;;;;;;;;;;;;;21.62;33.25;100441.69;4968428;28;5349;-61
2022/03/29 12:41:46;;;;;;;;;;;;;;;21.59;32.96;100443.03;4975911;28;4597;-60
2022/03/29 12:44:13;;;;;;;;;;;;;;;21.61;32.68;100427.97;4975634;28;4172;-60
2022/03/29 12:46:40;;;;;;;;;;;;;;;21.65;34.53;100423.06;4972880;28;4070;-60
2022/03/29 12:49:06;;;;;;;;;;;;;;;21.69;35.65;100417.44;4970827;28;4276;-62
2022/03/29 12:51:33;;;;;;;;;;;;;;;21.73;36.27;100411.81;4969666;28;4129;-63
2022/03/29 12:54:01;;;;;;;;;;;;;;;21.69;36.44;100410.94;4968632;28;5168;-62
2022/03/29 12:56:28;;;;;;;;;;;;;;;21.70;36.64;100398.75;4966002;28;5735;-60
2022/03/29 12:58:54;;;;;;;;;;;;;;;21.73;37.02;100396.66;4968707;28;4214;-61
2022/03/29 13:01:30;;;;;;;;;;;;;;;21.90;37.51;100395.06;4974917;28;4256;-59